Time;durP1;ratioP1;P1;durP2;ratioP2;P2;SDS_P1;SDS_P2;PMS_P1;PMS_P2;Temp;Humidity;BMP_temperature;BMP_pressure;BME280_temperature;BME280_humidity;BME280_pressure;Samples;Min_cycle;Max_cycle;Signal;HPM_P1;HPM_P2
2024/03/30 00:01:50;;;;;;;68.40;10.75;;;;;;;19.85;28.01;96690.69;5091532;28;20016;-45
2024/03/30 00:04:16;;;;;;;80.75;11.85;;;;;;;19.77;28.08;96688.78;5091495;28;20106;-45
2024/03/30 00:06:42;;;;;;;72.05;9.88;;;;;;;19.61;28.25;96683.06;5074524;28;20397;-45
2024/03/30 00:09:07;;;;;;;84.38;12.45;;;;;;;19.46;28.72;96672.84;5092783;28;20142;-45
2024/03/30 00:11:34;;;;;;;79.28;14.18;;;;;;;19.43;28.83;96668.13;5091361;28;20024;-45
2024/03/30 00:14:00;;;;;;;93.95;15.82;;;;;;;19.36;28.96;96666.69;5092610;28;20030;-45
2024/03/30 00:16:25;;;;;;;88.25;21.23;;;;;;;19.19;29.04;96663.19;5092488;28;20020;-45
2024/03/30 00:18:53;;;;;;;116.15;41.85;;;;;;;19.05;29.37;96657.94;5092568;28;20030;-45
2024/03/30 00:21:19;;;;;;;85.05;18.88;;;;;;;18.86;29.58;96650.19;5092454;28;20444;-45
2024/03/30 00:23:45;;;;;;;108.28;24.55;;;;;;;18.68;29.97;96641.28;5092493;28;20024;-45
2024/03/30 00:26:10;;;;;;;74.85;14.15;;;;;;;18.52;30.85;96619.63;5092359;28;20092;-45
2024/03/30 00:28:36;;;;;;;68.50;11.35;;;;;;;18.35;31.59;96596.38;5091095;28;20036;-45
2024/03/30 00:31:02;;;;;;;84.18;11.25;;;;;;;18.37;31.10;96594.19;5091033;28;20154;-45
2024/03/30 00:33:28;;;;;;;70.70;9.90;;;;;;;18.45;30.86;96601.47;5092301;28;20031;-45
2024/03/30 00:35:55;;;;;;;77.38;11.25;;;;;;;18.56;31.76;96594.78;5090962;28;20028;-45
2024/03/30 00:38:21;;;;;;;80.55;11.40;;;;;;;18.65;31.19;96597.53;5090931;28;20024;-45
2024/03/30 00:40:47;;;;;;;77.65;16.30;;;;;;;18.59;32.20;96596.06;5090765;28;20056;-45
2024/03/30 00:43:12;;;;;;;86.78;13.63;;;;;;;18.73;31.23;96582.69;5092178;28;20497;-45
2024/03/30 00:45:39;;;;;;;106.65;13.65;;;;;;;18.67;30.91;96592.69;5090820;28;20113;-45
2024/03/30 00:48:06;;;;;;;83.50;14.07;;;;;;;18.38;30.79;96585.16;5092102;28;20020;-45
2024/03/30 00:50:31;;;;;;;93.10;13.25;;;;;;;18.09;30.40;96581.03;5092309;28;20081;-45
2024/03/30 00:52:57;;;;;;;88.05;13.20;;;;;;;17.85;31.89;96581.31;5090704;28;20482;-45
2024/03/30 00:55:23;;;;;;;77.50;11.20;;;;;;;17.74;31.81;96580.69;5091956;28;20103;-45
2024/03/30 00:57:49;;;;;;;78.40;12.07;;;;;;;17.63;32.08;96574.06;5090593;28;20397;-45
2024/03/30 01:00:15;;;;;;;90.68;11.93;;;;;;;17.64;32.36;96569.53;5092213;28;20024;-45
2024/03/30 01:02:41;;;;;;;78.22;11.77;;;;;;;17.62;32.35;96559.22;5091944;28;20030;-45
2024/03/30 01:05:08;;;;;;;74.28;10.32;;;;;;;17.41;32.84;96558.88;5090585;28;20107;-45
2024/03/30 01:07:34;;;;;;;95.55;13.32;;;;;;;17.33;33.12;96547.09;5091864;28;20016;-45
2024/03/30 01:10:00;;;;;;;60.90;10.95;;;;;;;17.30;33.22;96555.63;5091748;28;20459;-45
2024/03/30 01:12:26;;;;;;;77.97;12.80;;;;;;;17.22;33.39;96540.41;5090816;28;20026;-45
2024/03/30 01:14:53;;;;;;;77.60;12.73;;;;;;;17.03;34.14;96545.06;5091884;28;20024;-45
2024/03/30 01:17:19;;;;;;;68.45;11.15;;;;;;;16.78;35.08;96544.41;5090360;28;20043;-45
2024/03/30 01:19:45;;;;;;;74.68;9.80;;;;;;;16.64;35.57;96539.13;5091746;28;20020;-45
2024/03/30 01:22:12;;;;;;;83.43;12.27;;;;;;;16.48;35.71;96537.78;5090417;28;20020;-44
2024/03/30 01:24:37;;;;;;;56.85;10.13;;;;;;;16.38;34.41;96507.00;5090465;28;20024;-44
2024/03/30 01:27:26;;;;;;;67.72;9.52;;;;;;;16.56;34.31;96521.25;5091660;28;20436;-45
2024/03/30 01:29:55;;;;;;;68.70;9.57;;;;;;;16.56;35.26;96522.03;5091674;28;20076;-45
2024/03/30 01:32:21;;;;;;;75.63;10.98;;;;;;;16.54;35.35;96532.13;5090413;28;20047;-45
2024/03/30 01:34:47;;;;;;;77.10;10.43;;;;;;;16.62;34.45;96528.03;5091711;28;20549;-44
2024/03/30 01:37:12;;;;;;;53.35;7.05;;;;;;;16.86;32.38;96525.22;5090272;28;20035;-44
2024/03/30 01:39:38;;;;;;;60.47;8.52;;;;;;;17.16;31.22;96534.44;5090274;28;20031;-45
2024/03/30 01:42:04;;;;;;;60.65;9.30;;;;;;;17.54;31.08;96536.06;5091478;28;20074;-45
2024/03/30 01:44:30;;;;;;;58.78;8.90;;;;;;;17.70;31.30;96539.16;5090217;28;20036;-45
2024/03/30 01:46:55;;;;;;;52.10;7.00;;;;;;;17.96;28.53;96523.47;5091561;28;20651;-45
2024/03/30 01:49:21;;;;;;;36.65;5.65;;;;;;;18.85;24.57;96529.00;5091435;28;20020;-45
2024/03/30 01:51:49;;;;;;;49.05;8.02;;;;;;;19.62;23.66;96532.16;5093940;28;20054;-44
2024/03/30 01:54:19;;;;;;;43.05;5.97;;;;;;;20.24;21.57;96502.59;5095287;28;20020;-45
2024/03/30 01:56:46;;;;;;;42.42;6.70;;;;;;;20.67;21.21;96516.91;5095440;28;20512;-45
2024/03/30 01:59:12;;;;;;;67.18;10.93;;;;;;;21.06;21.51;96523.00;5095256;28;20030;-45
2024/03/30 02:01:44;;;;;;;50.53;6.75;;;;;;;21.15;20.92;96515.75;5095447;28;20562;-45
2024/03/30 02:04:10;;;;;;;50.08;5.95;;;;;;;21.37;19.73;96522.69;5077764;28;20030;-45
2024/03/30 02:06:36;;;;;;;41.78;5.68;;;;;;;21.44;19.73;96514.19;5094082;28;20028;-45
2024/03/30 02:09:03;;;;;;;38.00;5.35;;;;;;;21.55;19.51;96523.41;5095004;28;20028;-45
2024/03/30 02:11:30;;;;;;;30.60;5.20;;;;;;;21.62;19.43;96528.97;5076697;28;20020;-45
2024/03/30 02:13:56;;;;;;;51.63;8.07;;;;;;;21.58;20.01;96532.63;5093653;28;20114;-45
2024/03/30 02:16:24;;;;;;;54.05;7.40;;;;;;;21.63;19.14;96567.13;5093679;28;20146;-44
2024/03/30 02:18:50;;;;;;;61.70;7.20;;;;;;;21.48;20.02;96555.91;5094692;28;20103;-45
2024/03/30 02:21:16;;;;;;;44.88;5.90;;;;;;;21.57;19.84;96539.06;5094789;28;20028;-45
2024/03/30 02:23:42;;;;;;;43.08;4.68;;;;;;;21.66;19.35;96535.22;5093440;28;20516;-45
2024/03/30 02:26:08;;;;;;;63.92;9.15;;;;;;;21.64;19.50;96526.78;5093658;28;20028;-44
2024/03/30 02:28:33;;;;;;;46.85;7.00;;;;;;;21.47;19.84;96525.00;5093400;28;20129;-45
2024/03/30 02:30:59;;;;;;;63.78;8.23;;;;;;;21.40;19.97;96531.94;5094598;28;20052;-45
2024/03/30 02:33:25;;;;;;;50.45;7.03;;;;;;;21.39;19.84;96527.69;5094586;28;20077;-45
2024/03/30 02:35:51;;;;;;;57.75;8.75;;;;;;;21.32;20.38;96518.31;5094493;28;20028;-45
2024/03/30 02:38:17;;;;;;;44.97;5.70;;;;;;;21.38;20.07;96513.56;5093407;28;20034;-45
2024/03/30 02:40:52;;;;;;;54.38;7.65;;;;;;;21.40;19.72;96513.25;5094269;28;20048;-45
2024/03/30 02:43:17;;;;;;;48.97;7.20;;;;;;;21.30;19.58;96511.75;5094702;28;20420;-45
2024/03/30 02:45:43;;;;;;;72.18;9.57;;;;;;;21.17;20.06;96502.06;5092984;28;20030;-45
2024/03/30 02:48:09;;;;;;;36.47;6.53;;;;;;;21.09;20.04;96533.81;5093263;28;20395;-45
2024/03/30 02:50:34;;;;;;;46.72;7.85;;;;;;;21.15;19.96;96555.78;5094311;28;20045;-45
2024/03/30 02:53:00;;;;;;;46.47;7.05;;;;;;;21.16;20.29;96530.66;5092905;28;20020;-45
2024/03/30 02:55:26;;;;;;;48.42;7.28;;;;;;;21.19;20.33;96527.34;5092813;28;20383;-45
2024/03/30 02:57:51;;;;;;;49.42;8.13;;;;;;;21.20;20.38;96522.78;5092703;28;20024;-45
2024/03/30 03:00:17;;;;;;;51.47;6.47;;;;;;;21.22;20.51;96510.69;5094040;28;20024;-45
2024/03/30 03:02:43;;;;;;;46.72;6.55;;;;;;;21.28;19.46;96503.28;5094155;28;20023;-45
2024/03/30 03:05:09;;;;;;;53.38;6.10;;;;;;;21.27;19.96;96513.19;5094015;28;20027;-45
2024/03/30 03:07:34;;;;;;;53.08;7.13;;;;;;;21.33;19.88;96489.75;5093921;28;20051;-45
2024/03/30 03:10:00;;;;;;;42.50;7.15;;;;;;;21.37;19.95;96508.56;5092555;28;20031;-45
2024/03/30 03:12:26;;;;;;;38.40;5.85;;;;;;;21.34;20.09;96499.31;5094106;28;20461;-45
2024/03/30 03:14:52;;;;;;;44.70;6.55;;;;;;;21.35;20.39;96490.22;5093654;28;20536;-45
2024/03/30 03:17:18;;;;;;;47.85;6.97;;;;;;;21.37;20.22;96496.00;5092605;28;20061;-45
2024/03/30 03:19:44;;;;;;;55.33;6.55;;;;;;;21.37;20.22;96485.34;5092353;28;20058;-45
2024/03/30 03:22:10;;;;;;;53.85;6.30;;;;;;;21.50;20.25;96491.53;5075489;28;20031;-45
2024/03/30 03:24:36;;;;;;;44.42;7.03;;;;;;;21.55;19.93;96486.03;5093666;28;20051;-45
2024/03/30 03:27:02;;;;;;;44.63;7.18;;;;;;;21.57;19.59;96472.34;5092291;28;20401;-45
2024/03/30 03:29:27;;;;;;;47.25;6.28;;;;;;;21.56;19.99;96471.56;5093565;28;20031;-45
2024/03/30 03:31:53;;;;;;;55.28;7.97;;;;;;;21.39;20.07;96474.31;5093534;28;20155;-45
2024/03/30 03:34:19;;;;;;;39.95;7.05;;;;;;;21.25;20.47;96470.03;5092353;28;20028;-45
2024/03/30 03:36:45;;;;;;;47.30;6.35;;;;;;;21.22;19.98;96456.56;5093220;28;20020;-45
2024/03/30 03:39:10;;;;;;;53.25;6.97;;;;;;;21.17;20.59;96454.88;5092352;28;20028;-45
2024/03/30 03:41:36;;;;;;;50.65;8.35;;;;;;;21.22;20.31;96457.31;5093131;28;20122;-45
2024/03/30 03:44:01;;;;;;;52.40;6.93;;;;;;;21.17;20.14;96454.06;5093265;28;20031;-45
2024/03/30 03:46:27;;;;;;;43.03;5.82;;;;;;;21.10;20.30;96450.03;5093191;28;20085;-45
2024/03/30 03:48:53;;;;;;;53.00;8.00;;;;;;;21.01;20.72;96445.88;5093112;28;20430;-45
2024/03/30 03:51:18;;;;;;;45.50;6.00;;;;;;;21.03;21.04;96446.34;5091772;28;20493;-45
2024/03/30 03:53:44;;;;;;;50.42;8.43;;;;;;;21.07;20.97;96424.03;5091977;28;20047;-45
2024/03/30 03:56:10;;;;;;;51.30;7.57;;;;;;;21.14;21.23;96424.25;5091658;28;20393;-45
2024/03/30 03:58:35;;;;;;;45.25;6.20;;;;;;;21.15;20.22;96427.72;5093140;28;20030;-45
2024/03/30 04:01:05;;;;;;;48.00;6.47;;;;;;;21.04;20.60;96424.66;5092858;28;20512;-45
2024/03/30 04:03:31;;;;;;;45.78;6.22;;;;;;;21.04;20.29;96445.97;5092821;28;20027;-45
2024/03/30 04:05:56;;;;;;;45.00;6.20;;;;;;;21.00;20.10;96438.97;5091412;28;20020;-45
2024/03/30 04:08:22;;;;;;;31.38;5.93;;;;;;;20.98;19.95;96436.63;5091804;28;20016;-45
2024/03/30 04:10:48;;;;;;;62.55;8.38;;;;;;;20.86;20.56;96434.63;5091647;28;20070;-45
2024/03/30 04:13:13;;;;;;;40.08;6.40;;;;;;;20.82;20.48;96428.38;5092216;28;20059;-45
2024/03/30 04:15:40;;;;;;;59.25;7.22;;;;;;;20.79;20.03;96401.63;5091629;28;20028;-45
2024/03/30 04:18:06;;;;;;;54.10;8.60;;;;;;;20.72;20.19;96428.75;5092468;28;20070;-45
2024/03/30 04:20:31;;;;;;;49.20;6.35;;;;;;;20.70;20.27;96431.75;5092541;28;20416;-45
2024/03/30 04:22:57;;;;;;;41.10;6.13;;;;;;;20.78;20.60;96426.69;5092781;28;20024;-45
2024/03/30 04:25:23;;;;;;;53.72;7.55;;;;;;;20.83;21.10;96424.63;5091127;28;20028;-45
2024/03/30 04:27:48;;;;;;;35.65;5.10;;;;;;;20.91;20.35;96410.47;5092445;28;20393;-45
2024/03/30 04:30:17;;;;;;;44.50;6.82;;;;;;;20.98;20.26;96393.94;5092433;28;20561;-45
2024/03/30 04:32:43;;;;;;;40.22;6.63;;;;;;;20.87;20.00;96404.22;5091048;28;20036;-45
2024/03/30 04:35:08;;;;;;;53.80;6.97;;;;;;;20.79;20.61;96412.28;5092261;28;20532;-45
2024/03/30 04:37:34;;;;;;;43.50;6.78;;;;;;;20.90;20.36;96406.22;5092203;28;20024;-45
2024/03/30 04:40:00;;;;;;;48.22;6.72;;;;;;;20.93;20.41;96418.94;5090714;28;20401;-46
2024/03/30 04:42:26;;;;;;;51.35;7.53;;;;;;;20.97;20.58;96423.59;5092243;28;20545;-45
2024/03/30 04:44:51;;;;;;;55.45;6.57;;;;;;;21.14;20.27;96424.25;5090864;28;20024;-45
2024/03/30 04:47:17;;;;;;;57.42;6.93;;;;;;;21.35;19.48;96407.50;5090899;28;20020;-45
2024/03/30 04:49:43;;;;;;;53.92;10.02;;;;;;;21.45;19.60;96401.78;5092062;28;20052;-45
2024/03/30 04:52:08;;;;;;;43.10;6.38;;;;;;;21.40;19.75;96423.31;5091994;28;20043;-45
2024/03/30 04:54:34;;;;;;;44.00;5.30;;;;;;;21.39;19.32;96432.44;5073916;28;20031;-45
2024/03/30 04:57:00;;;;;;;55.20;7.43;;;;;;;21.33;20.14;96426.50;5091911;28;20029;-45
2024/03/30 04:59:25;;;;;;;76.68;8.95;;;;;;;21.40;20.16;96417.97;5092224;28;20031;-45
2024/03/30 05:01:51;;;;;;;49.53;6.63;;;;;;;21.45;19.89;96433.00;5090888;28;20149;-45
2024/03/30 05:04:16;;;;;;;54.35;8.55;;;;;;;21.43;19.77;96441.38;5091940;28;20061;-45
2024/03/30 05:06:42;;;;;;;62.10;8.15;;;;;;;21.29;20.01;96428.25;5091900;28;20036;-45
2024/03/30 05:09:08;;;;;;;53.85;6.90;;;;;;;21.19;20.06;96436.66;5090589;28;20422;-45
2024/03/30 05:11:33;;;;;;;61.35;7.78;;;;;;;21.09;20.35;96431.69;5091822;28;20032;-45
2024/03/30 05:13:59;;;;;;;51.03;7.82;;;;;;;21.07;20.60;96439.25;5091847;28;20024;-45
2024/03/30 05:16:25;;;;;;;56.20;6.38;;;;;;;21.06;20.83;96438.44;5090435;28;20252;-45
2024/03/30 05:18:50;;;;;;;50.42;8.25;;;;;;;20.98;21.05;96441.16;5091783;28;20036;-45
2024/03/30 05:21:16;;;;;;;52.72;9.00;;;;;;;20.95;21.24;96434.59;5091722;28;20409;-45
2024/03/30 05:23:42;;;;;;;55.25;9.02;;;;;;;20.97;21.49;96442.25;5090412;28;20039;-45
2024/03/30 05:26:08;;;;;;;58.30;7.03;;;;;;;20.99;21.58;96448.06;5091926;28;20024;-45
2024/03/30 05:28:35;;;;;;;51.10;8.90;;;;;;;21.09;21.68;96463.72;5094534;28;20055;-45
2024/03/30 05:31:29;;;;;;;68.10;9.20;;;;;;;21.08;21.77;96436.22;5095798;28;20081;-45
2024/03/30 05:33:54;;;;;;;55.08;8.00;;;;;;;21.06;21.85;96424.34;5093628;28;20044;-45
2024/03/30 05:36:20;;;;;;;72.07;10.13;;;;;;;21.07;22.13;96433.91;5094372;28;20028;-45
2024/03/30 05:38:46;;;;;;;60.13;7.95;;;;;;;21.19;22.17;96423.31;5095521;28;20081;-45
2024/03/30 05:41:12;;;;;;;61.90;8.43;;;;;;;21.19;22.00;96438.50;5095410;28;20040;-45
2024/03/30 05:43:37;;;;;;;59.90;8.45;;;;;;;21.13;22.64;96441.38;5095783;28;20024;-44
2024/03/30 05:46:03;;;;;;;54.78;7.63;;;;;;;21.13;22.19;96429.94;5095778;28;20435;-45
2024/03/30 05:48:29;;;;;;;81.90;10.52;;;;;;;21.05;22.87;96428.13;5095411;28;20481;-45
2024/03/30 05:50:54;;;;;;;77.18;8.90;;;;;;;21.03;23.27;96476.44;5095437;28;20477;-45
2024/03/30 05:53:20;;;;;;;83.57;12.00;;;;;;;20.90;23.39;96438.22;5095375;28;20024;-45
2024/03/30 05:55:46;;;;;;;99.55;12.32;;;;;;;20.83;23.60;96411.31;5095198;28;20028;-45
2024/03/30 05:58:15;;;;;;;170.63;18.48;;;;;;;20.70;24.53;96398.97;5095250;28;20020;-43
2024/03/30 06:00:41;;;;;;;57.08;7.00;;;;;;;20.69;24.60;96445.41;5095477;28;20047;-45
2024/03/30 06:03:07;;;;;;;61.78;9.45;;;;;;;20.54;24.88;96463.47;5093865;28;20119;-45
2024/03/30 06:05:34;;;;;;;60.53;7.85;;;;;;;20.36;26.04;96448.63;5093800;28;20095;-45
2024/03/30 06:07:59;;;;;;;69.57;10.00;;;;;;;20.26;26.49;96467.63;5095148;28;20016;-44
2024/03/30 06:10:25;;;;;;;76.43;10.75;;;;;;;20.13;27.34;96438.19;5095294;28;20093;-44
2024/03/30 06:12:51;;;;;;;64.72;9.40;;;;;;;20.04;27.39;96453.44;5094986;28;20486;-45
2024/03/30 06:15:16;;;;;;;63.55;9.90;;;;;;;19.87;27.54;96454.22;5093983;28;20043;-45
2024/03/30 06:17:42;;;;;;;51.30;7.80;;;;;;;19.72;28.14;96479.47;5094837;28;20077;-44
2024/03/30 06:20:08;;;;;;;67.05;7.32;;;;;;;19.54;28.32;96457.34;5094927;28;20063;-45
2024/03/30 06:22:35;;;;;;;70.53;9.20;;;;;;;19.51;28.62;96491.78;5093494;28;20462;-45
2024/03/30 06:25:02;;;;;;;67.13;10.35;;;;;;;19.50;28.83;96524.81;5094832;28;20024;-45
2024/03/30 06:27:28;;;;;;;57.50;9.43;;;;;;;19.45;29.09;96538.25;5094674;28;20073;-45
2024/03/30 06:29:54;;;;;;;60.80;9.90;;;;;;;19.42;29.63;96533.53;5093410;28;20035;-45
2024/03/30 06:32:20;;;;;;;76.15;10.27;;;;;;;19.48;29.57;96533.09;5094583;28;20020;-44
2024/03/30 06:34:49;;;;;;;71.38;10.68;;;;;;;19.42;30.38;96517.56;5094575;28;20046;-44
2024/03/30 06:37:15;;;;;;;76.60;12.38;;;;;;;19.32;32.21;96537.31;5093991;28;20020;-45
2024/03/30 06:45:09;;;;;;;84.78;13.18;;;;;;;18.12;38.50;96561.84;5094672;28;20046;-44
2024/03/30 06:47:35;;;;;;;67.07;9.18;;;;;;;17.92;39.46;96564.97;5094353;28;20027;-45
2024/03/30 06:50:00;;;;;;;84.28;12.30;;;;;;;17.66;40.76;96609.81;5094346;28;20028;-44
2024/03/30 06:52:26;;;;;;;83.60;13.48;;;;;;;17.42;42.04;96626.72;5094214;28;20027;-44
2024/03/30 06:54:52;;;;;;;73.25;10.30;;;;;;;17.24;43.43;96648.81;5093020;28;20024;-44
2024/03/30 06:57:17;;;;;;;81.28;11.25;;;;;;;16.93;45.71;96658.09;5094095;28;20027;-44
2024/03/30 06:59:45;;;;;;;86.72;12.32;;;;;;;16.63;47.95;96616.97;5094084;28;20028;-44
2024/03/30 07:02:11;;;;;;;74.05;12.73;;;;;;;16.43;49.81;96631.31;5092802;28;20028;-44
2024/03/30 07:04:38;;;;;;;92.00;15.15;;;;;;;16.14;51.71;96684.44;5094259;28;20434;-44
2024/03/30 07:07:04;;;;;;;89.25;13.00;;;;;;;15.88;53.97;96674.19;5093988;28;20051;-44
2024/03/30 07:09:30;;;;;;;92.30;15.73;;;;;;;15.55;56.36;96657.34;5093983;28;20020;-44
2024/03/30 07:11:57;;;;;;;97.20;16.00;;;;;;;15.30;58.21;96704.13;5092571;28;20048;-44
2024/03/30 07:14:23;;;;;;;93.32;15.38;;;;;;;15.11;60.23;96721.75;5092548;28;20509;-44
2024/03/30 07:16:49;;;;;;;87.72;13.35;;;;;;;14.95;61.20;96670.91;5092499;28;20024;-44
2024/03/30 07:19:15;;;;;;;82.72;15.00;;;;;;;14.73;62.41;96695.91;5092390;28;20030;-43
2024/03/30 07:21:40;;;;;;;80.32;10.85;;;;;;;14.68;63.27;96698.59;5093593;28;20098;-46
2024/03/30 07:24:06;;;;;;;62.70;10.38;;;;;;;14.71;61.33;96691.97;5093688;28;20020;-46
2024/03/30 07:26:32;;;;;;;76.65;13.43;;;;;;;14.63;60.84;96690.72;5075383;28;20077;-46
2024/03/30 07:28:57;;;;;;;80.30;11.38;;;;;;;14.55;60.32;96655.09;5093584;28;20497;-46
2024/03/30 07:31:25;;;;;;;55.05;8.85;;;;;;;14.47;60.47;96708.47;5093511;28;20401;-45
2024/03/30 07:33:51;;;;;;;56.97;8.13;;;;;;;14.39;60.74;96733.59;5093369;28;20024;-46
2024/03/30 07:36:17;;;;;;;67.05;9.35;;;;;;;14.44;60.95;96724.84;5092033;28;20034;-46
2024/03/30 07:38:42;;;;;;;49.00;7.25;;;;;;;14.48;61.25;96714.53;5093333;28;20024;-46
2024/03/30 07:41:08;;;;;;;47.33;7.82;;;;;;;14.51;61.51;96722.69;5093027;28;20593;-46
2024/03/30 07:43:34;;;;;;;45.28;7.18;;;;;;;14.53;60.23;96723.22;5091936;28;20439;-46
2024/03/30 07:46:03;;;;;;;38.45;8.00;;;;;;;14.49;59.75;96643.00;5093220;28;20028;-46
2024/03/30 07:48:29;;;;;;;48.28;8.35;;;;;;;14.31;61.54;96773.75;5091030;28;20122;-46
2024/03/30 07:50:55;;;;;;;57.85;8.15;;;;;;;14.23;62.36;96768.25;5093021;28;20050;-47
2024/03/30 07:53:20;;;;;;;54.85;7.05;;;;;;;14.15;62.40;96770.38;5093050;28;20481;-46
2024/03/30 07:55:47;;;;;;;38.33;7.03;;;;;;;14.02;63.13;96778.84;5093059;28;20032;-46
2024/03/30 07:58:12;;;;;;;43.08;5.80;;;;;;;13.95;64.16;96783.66;5092823;28;20024;-46
2024/03/30 08:00:38;;;;;;;41.67;7.45;;;;;;;13.93;64.67;96809.50;5093217;28;20028;-46
2024/03/30 08:03:04;;;;;;;55.20;8.15;;;;;;;13.92;64.34;96755.16;5092952;28;20028;-46
2024/03/30 08:05:31;;;;;;;54.03;6.57;;;;;;;13.83;65.37;96783.16;5092833;28;20047;-45
2024/03/30 08:07:56;;;;;;;39.03;6.38;;;;;;;13.70;66.26;96826.66;5091487;28;20032;-46
2024/03/30 08:10:23;;;;;;;46.47;7.50;;;;;;;13.56;66.34;96756.06;5092750;28;20124;-46
2024/03/30 08:12:49;;;;;;;45.25;7.32;;;;;;;13.45;67.49;96799.28;5092763;28;20032;-46
2024/03/30 08:15:16;;;;;;;38.08;5.07;;;;;;;13.52;67.14;96785.84;5092541;28;20077;-46
2024/03/30 08:17:42;;;;;;;39.67;6.85;;;;;;;13.56;68.36;96789.53;5092869;28;20439;-46
2024/03/30 08:20:08;;;;;;;42.65;7.13;;;;;;;13.70;66.82;96792.41;5092599;28;20027;-46
2024/03/30 08:22:36;;;;;;;54.40;6.90;;;;;;;13.70;65.83;96777.41;5092574;28;20509;-47
2024/03/30 08:25:03;;;;;;;48.10;7.85;;;;;;;13.78;65.91;96805.84;5091164;28;20516;-46
2024/03/30 08:27:28;;;;;;;42.95;5.30;;;;;;;13.85;65.50;96808.19;5092400;28;20103;-46
2024/03/30 08:29:54;;;;;;;43.90;5.57;;;;;;;13.81;64.90;96812.44;5091160;28;20186;-47
2024/03/30 08:32:20;;;;;;;46.85;7.20;;;;;;;13.87;65.95;96763.09;5091024;28;20549;-47
2024/03/30 08:34:45;;;;;;;41.15;6.13;;;;;;;13.91;65.80;96820.31;5091091;28;20460;-46
2024/03/30 08:37:11;;;;;;;41.97;5.72;;;;;;;13.98;64.71;96773.34;5090908;28;20047;-46
2024/03/30 08:39:36;;;;;;;41.38;6.18;;;;;;;14.03;64.68;96811.31;5092558;28;20397;-47
2024/03/30 08:42:02;;;;;;;36.72;5.30;;;;;;;14.12;63.93;96812.34;5091941;28;20056;-47
2024/03/30 08:44:28;;;;;;;32.08;5.15;;;;;;;14.08;64.53;96792.81;5092193;28;20106;-46
2024/03/30 08:46:54;;;;;;;37.60;6.20;;;;;;;13.90;64.37;96770.47;5092206;28;20027;-46
2024/03/30 08:49:19;;;;;;;37.90;5.07;;;;;;;13.77;65.07;96811.38;5092361;28;20547;-46
2024/03/30 08:51:45;;;;;;;47.13;6.57;;;;;;;13.73;66.35;96821.66;5092113;28;20482;-47
2024/03/30 08:54:10;;;;;;;43.83;5.15;;;;;;;13.82;65.67;96840.34;5092066;28;20399;-47
2024/03/30 08:56:37;;;;;;;28.05;4.40;;;;;;;13.84;65.07;96843.50;5092022;28;20028;-47
2024/03/30 08:59:03;;;;;;;29.42;6.18;;;;;;;13.88;65.70;96834.00;5091955;28;20452;-47
2024/03/30 09:01:29;;;;;;;38.05;4.78;;;;;;;13.94;66.06;96840.06;5090491;28;20493;-47
2024/03/30 09:03:55;;;;;;;41.00;5.47;;;;;;;13.93;65.29;96846.41;5092002;28;20103;-47
2024/03/30 09:06:21;;;;;;;34.13;3.67;;;;;;;13.84;65.28;96834.81;5090582;28;20409;-47
2024/03/30 09:08:47;;;;;;;35.67;5.70;;;;;;;13.80;66.11;96829.28;5091960;28;20099;-46
2024/03/30 09:11:13;;;;;;;29.63;5.50;;;;;;;13.83;66.99;96847.22;5090490;28;20451;-47
2024/03/30 09:13:39;;;;;;;34.92;6.18;;;;;;;13.92;65.62;96843.00;5091755;28;20063;-47
2024/03/30 09:16:05;;;;;;;31.55;5.88;;;;;;;13.90;65.90;96842.44;5090590;28;20066;-47
2024/03/30 09:18:31;;;;;;;36.28;4.97;;;;;;;13.99;65.23;96858.53;5091679;28;20036;-46
2024/03/30 09:20:58;;;;;;;38.70;5.78;;;;;;;13.99;65.63;96854.03;5090786;28;20106;-47
2024/03/30 09:23:25;;;;;;;28.90;5.05;;;;;;;14.15;65.01;96844.25;5091704;28;20058;-46
2024/03/30 09:25:51;;;;;;;42.33;7.00;;;;;;;14.23;64.62;96863.22;5091737;28;20123;-47
2024/03/30 09:28:17;;;;;;;31.13;6.22;;;;;;;14.39;63.76;96862.13;5091606;28;20099;-47
2024/03/30 09:30:43;;;;;;;30.40;5.40;;;;;;;14.49;62.16;96864.72;5091673;28;20442;-46
2024/03/30 09:33:09;;;;;;;21.85;4.22;;;;;;;14.57;62.39;96872.09;5090306;28;20059;-47
2024/03/30 09:35:38;;;;;;;37.10;5.65;;;;;;;14.55;62.06;96887.41;5091674;28;20111;-47
2024/03/30 09:38:04;;;;;;;22.55;6.00;;;;;;;14.60;61.99;96896.38;5090239;28;20086;-47
2024/03/30 09:40:30;;;;;;;39.55;7.13;;;;;;;14.62;61.90;96904.81;5090284;28;20060;-47
2024/03/30 09:42:57;;;;;;;24.02;6.43;;;;;;;14.72;62.20;96899.50;5090347;28;20086;-47
2024/03/30 09:45:26;;;;;;;29.45;5.03;;;;;;;14.89;62.10;96894.66;5090319;28;20035;-46
2024/03/30 09:47:55;;;;;;;30.55;5.68;;;;;;;15.03;61.36;96901.97;5073493;28;20039;-47
2024/03/30 09:50:22;;;;;;;27.42;6.05;;;;;;;15.25;61.19;96906.88;5091477;28;20028;-47
2024/03/30 09:52:50;;;;;;;36.03;5.38;;;;;;;15.37;59.93;96913.41;5091511;28;20052;-47
2024/03/30 09:55:17;;;;;;;30.40;5.97;;;;;;;15.49;59.65;96914.91;5091468;28;20493;-47
2024/03/30 09:57:47;;;;;;;28.38;4.35;;;;;;;15.62;59.05;96911.66;5091378;28;20042;-47
2024/03/30 10:00:14;;;;;;;34.88;4.95;;;;;;;15.70;58.49;96904.97;5090158;28;20035;-47
2024/03/30 10:02:41;;;;;;;27.60;5.28;;;;;;;15.92;57.73;96913.28;5091406;28;20024;-47
2024/03/30 10:05:09;;;;;;;31.67;4.07;;;;;;;16.04;57.15;96917.41;5073174;28;20059;-47
2024/03/30 10:07:37;;;;;;;33.20;5.57;;;;;;;16.12;57.05;96914.16;5091276;28;20028;-47
2024/03/30 10:10:12;;;;;;;30.45;4.57;;;;;;;16.01;56.28;96920.59;5091314;28;20077;-47
2024/03/30 10:12:54;;;;;;;31.83;5.68;;;;;;;15.93;57.01;96914.84;5093466;28;20111;-47
2024/03/30 10:15:41;;;;;;;32.03;5.45;;;;;;;16.09;56.42;96915.50;5093787;28;20028;-47
2024/03/30 10:18:07;;;;;;;25.70;4.03;;;;;;;16.19;56.26;96911.97;5094863;28;20028;-47
2024/03/30 10:20:32;;;;;;;27.83;4.65;;;;;;;16.14;56.04;96914.69;5093556;28;20039;-47
2024/03/30 10:22:58;;;;;;;35.10;5.03;;;;;;;16.09;56.58;96912.84;5094802;28;20158;-47
2024/03/30 10:25:27;;;;;;;25.65;4.70;;;;;;;15.94;57.87;96908.50;5093475;28;20121;-47
2024/03/30 10:27:53;;;;;;;36.58;7.25;;;;;;;15.77;59.62;96911.56;5093466;28;20035;-47
2024/03/30 10:30:19;;;;;;;36.10;8.00;;;;;;;15.60;61.68;96911.13;5093332;28;20409;-47
2024/03/30 10:32:46;;;;;;;33.15;5.60;;;;;;;15.46;63.81;96918.13;5094702;28;20097;-47
2024/03/30 10:35:19;;;;;;;24.50;7.07;;;;;;;15.21;63.69;96922.47;5094557;28;20106;-47
2024/03/30 10:37:45;;;;;;;23.25;6.07;;;;;;;14.81;65.02;96926.94;5094473;28;20032;-47
2024/03/30 10:40:12;;;;;;;28.58;5.45;;;;;;;14.48;67.53;96918.56;5093001;28;20089;-47
2024/03/30 10:42:40;;;;;;;28.30;5.35;;;;;;;14.24;70.53;96930.75;5094502;28;20042;-46
2024/03/30 10:45:07;;;;;;;29.65;6.10;;;;;;;14.26;74.59;96936.56;5094359;28;20024;-46
2024/03/30 10:47:37;;;;;;;34.15;5.53;;;;;;;14.10;75.96;96949.75;5094341;28;20451;-46
2024/03/30 10:50:04;;;;;;;43.45;18.60;;;;;;;13.95;79.42;96955.06;5094529;28;20036;-46
2024/03/30 10:52:30;;;;;;;39.10;11.32;;;;;;;13.83;82.16;96965.88;5094304;28;20043;-46
2024/03/30 10:54:57;;;;;;;120.10;102.13;;;;;;;13.74;84.68;96972.72;5094206;28;20023;-46
2024/03/30 10:57:24;;;;;;;35.30;11.95;;;;;;;13.59;88.17;96974.28;5094094;28;20028;-45
2024/03/30 10:59:49;;;;;;;44.45;17.05;;;;;;;13.46;92.29;96959.00;5094102;28;20401;-45
2024/03/30 11:02:17;;;;;;;31.05;11.65;;;;;;;13.34;95.00;96966.31;5094076;28;20028;-45
2024/03/30 11:04:44;;;;;;;42.17;19.35;;;;;;;13.09;96.95;96974.94;5094089;28;20038;-45
2024/03/30 11:07:12;;;;;;;38.08;17.33;;;;;;;12.99;100.00;96986.22;5092919;28;20030;-45
2024/03/30 11:09:41;;;;;;;55.22;33.08;;;;;;;12.89;100.00;96975.66;5092615;28;20036;-45
2024/03/30 11:12:11;;;;;;;31.75;7.13;;;;;;;12.85;100.00;97011.44;5093814;28;20032;-45
2024/03/30 11:14:38;;;;;;;25.23;5.60;;;;;;;12.73;100.00;97011.63;5092560;28;20101;-46
2024/03/30 11:17:29;;;;;;;27.77;6.22;;;;;;;12.47;100.00;97015.97;5092496;28;20054;-45
2024/03/30 11:20:17;;;;;;;16.48;4.35;;;;;;;12.05;100.00;97028.00;5093762;28;20028;-45
2024/03/30 11:22:53;;;;;;;37.72;20.13;;;;;;;11.67;100.00;97035.00;5091864;28;20397;-45
2024/03/30 11:25:30;;;;;;;27.92;4.38;;;;;;;11.75;100.00;97046.91;5093129;28;20042;-45